sensor_id;sensor_type;location;lat;lon;timestamp;temperature;humidity
21403;DHT22;10862;51.886;17.078;2022-10-23T00:02:21;12.40;99.90
21403;DHT22;10862;51.886;17.078;2022-10-23T00:04:50;12.40;99.90
21403;DHT22;10862;51.886;17.078;2022-10-23T00:07:16;12.40;99.90
21403;DHT22;10862;51.886;17.078;2022-10-23T00:09:42;12.30;99.90
21403;DHT22;10862;51.886;17.078;2022-10-23T00:12:07;12.40;99.90
21403;DHT22;10862;51.886;17.078;2022-10-23T00:14:33;12.30;99.90
21403;DHT22;10862;51.886;17.078;2022-10-23T00:16:58;12.30;99.90
21403;DHT22;10862;51.886;17.078;2022-10-23T00:19:24;12.20;99.90
21403;DHT22;10862;51.886;17.078;2022-10-23T00:21:49;12.20;99.90
21403;DHT22;10862;51.886;17.078;2022-10-23T00:24:15;12.10;99.90
21403;DHT22;10862;51.886;17.078;2022-10-23T00:26:40;12.10;99.90
21403;DHT22;10862;51.886;17.078;2022-10-23T00:29:06;12.10;99.90
21403;DHT22;10862;51.886;17.078;2022-10-23T00:31:32;12.00;99.90
21403;DHT22;10862;51.886;17.078;2022-10-23T00:33:57;12.00;99.90
21403;DHT22;10862;51.886;17.078;2022-10-23T00:36:23;11.90;99.90
21403;DHT22;10862;51.886;17.078;2022-10-23T00:38:49;11.90;99.90
21403;DHT22;10862;51.886;17.078;2022-10-23T00:41:17;11.90;99.90
21403;DHT22;10862;51.886;17.078;2022-10-23T00:46:27;11.90;99.90
21403;DHT22;10862;51.886;17.078;2022-10-23T00:48:52;11.80;99.90
21403;DHT22;10862;51.886;17.078;2022-10-23T00:51:18;11.80;99.90
21403;DHT22;10862;51.886;17.078;2022-10-23T00:53:43;11.70;99.90
21403;DHT22;10862;51.886;17.078;2022-10-23T00:56:09;11.70;99.90
21403;DHT22;10862;51.886;17.078;2022-10-23T00:58:35;11.60;99.90
21403;DHT22;10862;51.886;17.078;2022-10-23T01:01:01;11.60;99.90
21403;DHT22;10862;51.886;17.078;2022-10-23T01:03:27;11.70;99.90
21403;DHT22;10862;51.886;17.078;2022-10-23T01:05:59;11.60;99.90
21403;DHT22;10862;51.886;17.078;2022-10-23T01:08:31;11.60;99.90
21403;DHT22;10862;51.886;17.078;2022-10-23T01:14:00;11.50;99.90
21403;DHT22;10862;51.886;17.078;2022-10-23T01:16:36;11.50;99.90
21403;DHT22;10862;51.886;17.078;2022-10-23T01:21:54;11.50;99.90
21403;DHT22;10862;51.886;17.078;2022-10-23T01:27:20;11.40;99.90
21403;DHT22;10862;51.886;17.078;2022-10-23T01:30:08;11.40;99.90
21403;DHT22;10862;51.886;17.078;2022-10-23T01:32:34;11.30;99.90
21403;DHT22;10862;51.886;17.078;2022-10-23T01:38:11;11.30;99.90
21403;DHT22;10862;51.886;17.078;2022-10-23T01:40:42;11.30;99.90
21403;DHT22;10862;51.886;17.078;2022-10-23T01:43:13;11.20;99.90
21403;DHT22;10862;51.886;17.078;2022-10-23T01:45:51;11.20;99.90
21403;DHT22;10862;51.886;17.078;2022-10-23T01:48:20;11.20;99.90
21403;DHT22;10862;51.886;17.078;2022-10-23T01:50:46;11.20;99.90
21403;DHT22;10862;51.886;17.078;2022-10-23T01:53:13;11.20;99.90
21403;DHT22;10862;51.886;17.078;2022-10-23T01:55:39;11.20;99.90
21403;DHT22;10862;51.886;17.078;2022-10-23T01:58:05;11.20;99.90
21403;DHT22;10862;51.886;17.078;2022-10-23T02:00:33;11.10;99.90
21403;DHT22;10862;51.886;17.078;2022-10-23T02:03:00;11.10;99.90
21403;DHT22;10862;51.886;17.078;2022-10-23T02:05:29;11.10;99.90
21403;DHT22;10862;51.886;17.078;2022-10-23T02:07:55;11.10;99.90
21403;DHT22;10862;51.886;17.078;2022-10-23T02:10:21;11.10;99.90
21403;DHT22;10862;51.886;17.078;2022-10-23T02:12:58;11.00;99.90
21403;DHT22;10862;51.886;17.078;2022-10-23T02:18:12;11.00;99.90
21403;DHT22;10862;51.886;17.078;2022-10-23T02:20:44;11.00;99.90
21403;DHT22;10862;51.886;17.078;2022-10-23T02:23:18;11.00;99.90
21403;DHT22;10862;51.886;17.078;2022-10-23T02:25:47;10.90;99.90
21403;DHT22;10862;51.886;17.078;2022-10-23T02:28:15;10.90;99.90
21403;DHT22;10862;51.886;17.078;2022-10-23T02:30:42;10.90;99.90
21403;DHT22;10862;51.886;17.078;2022-10-23T02:33:09;10.80;99.90
21403;DHT22;10862;51.886;17.078;2022-10-23T02:35:36;10.80;99.90
21403;DHT22;10862;51.886;17.078;2022-10-23T02:38:01;10.80;99.90
21403;DHT22;10862;51.886;17.078;2022-10-23T02:40:33;10.80;99.90
21403;DHT22;10862;51.886;17.078;2022-10-23T02:43:01;10.80;99.90
21403;DHT22;10862;51.886;17.078;2022-10-23T02:45:29;10.70;99.90
21403;DHT22;10862;51.886;17.078;2022-10-23T02:48:16;10.70;99.90
21403;DHT22;10862;51.886;17.078;2022-10-23T02:58:09;10.70;99.90
21403;DHT22;10862;51.886;17.078;2022-10-23T03:00:41;10.70;99.90
21403;DHT22;10862;51.886;17.078;2022-10-23T03:03:09;10.70;99.90
21403;DHT22;10862;51.886;17.078;2022-10-23T03:05:35;10.70;99.90
21403;DHT22;10862;51.886;17.078;2022-10-23T03:08:03;10.70;99.90
21403;DHT22;10862;51.886;17.078;2022-10-23T03:10:28;10.70;99.90
21403;DHT22;10862;51.886;17.078;2022-10-23T03:12:54;10.70;99.90
21403;DHT22;10862;51.886;17.078;2022-10-23T03:15:19;10.70;99.90
21403;DHT22;10862;51.886;17.078;2022-10-23T03:17:45;10.70;99.90
21403;DHT22;10862;51.886;17.078;2022-10-23T03:20:10;10.70;99.90
21403;DHT22;10862;51.886;17.078;2022-10-23T03:22:36;10.70;99.90
21403;DHT22;10862;51.886;17.078;2022-10-23T03:25:01;10.80;99.90
21403;DHT22;10862;51.886;17.078;2022-10-23T03:27:27;10.80;99.90
21403;DHT22;10862;51.886;17.078;2022-10-23T03:29:52;10.70;99.90
21403;DHT22;10862;51.886;17.078;2022-10-23T03:32:18;10.90;99.90
21403;DHT22;10862;51.886;17.078;2022-10-23T03:34:43;10.80;99.90
21403;DHT22;10862;51.886;17.078;2022-10-23T03:37:09;10.80;99.90
21403;DHT22;10862;51.886;17.078;2022-10-23T03:39:35;10.80;99.90
21403;DHT22;10862;51.886;17.078;2022-10-23T03:42:00;10.80;99.90
21403;DHT22;10862;51.886;17.078;2022-10-23T03:44:26;10.80;99.90
21403;DHT22;10862;51.886;17.078;2022-10-23T03:46:51;10.80;99.90
21403;DHT22;10862;51.886;17.078;2022-10-23T03:49:17;10.80;99.90
21403;DHT22;10862;51.886;17.078;2022-10-23T03:51:42;10.80;99.90
21403;DHT22;10862;51.886;17.078;2022-10-23T03:54:09;10.80;99.90
21403;DHT22;10862;51.886;17.078;2022-10-23T03:56:35;10.80;99.90
21403;DHT22;10862;51.886;17.078;2022-10-23T03:59:00;10.80;99.90
21403;DHT22;10862;51.886;17.078;2022-10-23T04:01:26;10.80;99.90
21403;DHT22;10862;51.886;17.078;2022-10-23T04:03:51;10.90;99.90
21403;DHT22;10862;51.886;17.078;2022-10-23T04:06:17;10.90;99.90
21403;DHT22;10862;51.886;17.078;2022-10-23T04:08:42;10.90;99.90
21403;DHT22;10862;51.886;17.078;2022-10-23T04:11:08;11.00;99.90
21403;DHT22;10862;51.886;17.078;2022-10-23T04:13:34;10.90;99.90
21403;DHT22;10862;51.886;17.078;2022-10-23T04:15:59;10.90;99.90
21403;DHT22;10862;51.886;17.078;2022-10-23T04:18:25;10.90;99.90
21403;DHT22;10862;51.886;17.078;2022-10-23T04:20:51;10.90;99.90
21403;DHT22;10862;51.886;17.078;2022-10-23T04:23:16;10.80;99.90
21403;DHT22;10862;51.886;17.078;2022-10-23T04:25:42;10.90;99.90
21403;DHT22;10862;51.886;17.078;2022-10-23T04:28:07;10.90;99.90
21403;DHT22;10862;51.886;17.078;2022-10-23T04:30:33;10.90;99.90
21403;DHT22;10862;51.886;17.078;2022-10-23T04:32:59;10.90;99.90
21403;DHT22;10862;51.886;17.078;2022-10-23T04:35:24;10.90;99.90
21403;DHT22;10862;51.886;17.078;2022-10-23T04:37:50;10.90;99.90
21403;DHT22;10862;51.886;17.078;2022-10-23T04:40:15;11.00;99.90
21403;DHT22;10862;51.886;17.078;2022-10-23T04:42:41;10.90;99.90
21403;DHT22;10862;51.886;17.078;2022-10-23T04:45:06;10.90;99.90
21403;DHT22;10862;51.886;17.078;2022-10-23T04:47:32;10.90;99.90
21403;DHT22;10862;51.886;17.078;2022-10-23T04:49:57;10.90;99.90
21403;DHT22;10862;51.886;17.078;2022-10-23T04:52:23;10.90;99.90
21403;DHT22;10862;51.886;17.078;2022-10-23T04:54:48;11.00;99.90
21403;DHT22;10862;51.886;17.078;2022-10-23T04:57:14;11.00;99.90
21403;DHT22;10862;51.886;17.078;2022-10-23T04:59:39;11.00;99.90
21403;DHT22;10862;51.886;17.078;2022-10-23T05:02:05;10.90;99.90
21403;DHT22;10862;51.886;17.078;2022-10-23T05:04:30;10.90;99.90
21403;DHT22;10862;51.886;17.078;2022-10-23T05:06:56;10.90;99.90
21403;DHT22;10862;51.886;17.078;2022-10-23T05:09:21;10.90;99.90
21403;DHT22;10862;51.886;17.078;2022-10-23T05:11:47;10.90;99.90
21403;DHT22;10862;51.886;17.078;2022-10-23T05:14:13;10.90;99.90
21403;DHT22;10862;51.886;17.078;2022-10-23T05:19:04;10.90;99.90
21403;DHT22;10862;51.886;17.078;2022-10-23T05:21:32;10.90;99.90
21403;DHT22;10862;51.886;17.078;2022-10-23T05:23:58;10.90;99.90
21403;DHT22;10862;51.886;17.078;2022-10-23T05:26:26;11.00;99.90
21403;DHT22;10862;51.886;17.078;2022-10-23T05:28:52;10.90;99.90
21403;DHT22;10862;51.886;17.078;2022-10-23T05:31:17;11.00;99.90
21403;DHT22;10862;51.886;17.078;2022-10-23T05:33:43;11.00;99.90
21403;DHT22;10862;51.886;17.078;2022-10-23T05:36:09;11.00;99.90
21403;DHT22;10862;51.886;17.078;2022-10-23T05:38:36;11.00;99.90
21403;DHT22;10862;51.886;17.078;2022-10-23T05:41:02;11.00;99.90
21403;DHT22;10862;51.886;17.078;2022-10-23T05:43:27;11.00;99.90
21403;DHT22;10862;51.886;17.078;2022-10-23T05:45:55;11.00;99.90
21403;DHT22;10862;51.886;17.078;2022-10-23T05:48:21;11.10;99.90
21403;DHT22;10862;51.886;17.078;2022-10-23T05:50:47;11.10;99.90
21403;DHT22;10862;51.886;17.078;2022-10-23T05:53:12;11.10;99.90
21403;DHT22;10862;51.886;17.078;2022-10-23T05:55:38;11.10;99.90
21403;DHT22;10862;51.886;17.078;2022-10-23T05:58:03;11.10;99.90
21403;DHT22;10862;51.886;17.078;2022-10-23T06:00:29;11.10;99.90
21403;DHT22;10862;51.886;17.078;2022-10-23T06:02:54;11.10;99.90
21403;DHT22;10862;51.886;17.078;2022-10-23T06:05:20;11.10;99.90
21403;DHT22;10862;51.886;17.078;2022-10-23T06:07:46;11.10;99.90
21403;DHT22;10862;51.886;17.078;2022-10-23T06:10:11;11.10;99.90
21403;DHT22;10862;51.886;17.078;2022-10-23T06:12:37;11.10;99.90
21403;DHT22;10862;51.886;17.078;2022-10-23T06:15:03;11.20;99.90
21403;DHT22;10862;51.886;17.078;2022-10-23T06:17:28;11.20;99.90
21403;DHT22;10862;51.886;17.078;2022-10-23T06:19:54;11.20;99.90
21403;DHT22;10862;51.886;17.078;2022-10-23T06:22:25;11.20;99.90
21403;DHT22;10862;51.886;17.078;2022-10-23T06:24:51;11.30;99.90
21403;DHT22;10862;51.886;17.078;2022-10-23T06:27:17;11.30;99.90
21403;DHT22;10862;51.886;17.078;2022-10-23T06:29:42;11.30;99.90
21403;DHT22;10862;51.886;17.078;2022-10-23T06:32:08;11.30;99.90
21403;DHT22;10862;51.886;17.078;2022-10-23T06:34:33;11.40;99.90
21403;DHT22;10862;51.886;17.078;2022-10-23T06:36:59;11.40;99.90
21403;DHT22;10862;51.886;17.078;2022-10-23T06:39:24;11.30;99.90
21403;DHT22;10862;51.886;17.078;2022-10-23T06:41:50;11.40;99.90
21403;DHT22;10862;51.886;17.078;2022-10-23T06:44:15;11.40;99.90
21403;DHT22;10862;51.886;17.078;2022-10-23T06:46:41;11.40;99.90
21403;DHT22;10862;51.886;17.078;2022-10-23T06:49:12;11.40;99.90
21403;DHT22;10862;51.886;17.078;2022-10-23T06:51:37;11.40;99.90
21403;DHT22;10862;51.886;17.078;2022-10-23T06:54:03;11.40;99.90
21403;DHT22;10862;51.886;17.078;2022-10-23T06:56:28;11.40;99.90
21403;DHT22;10862;51.886;17.078;2022-10-23T06:58:54;11.40;99.90
21403;DHT22;10862;51.886;17.078;2022-10-23T07:01:20;11.40;99.90
21403;DHT22;10862;51.886;17.078;2022-10-23T07:03:46;11.40;99.90
21403;DHT22;10862;51.886;17.078;2022-10-23T07:06:12;11.50;99.90
21403;DHT22;10862;51.886;17.078;2022-10-23T07:08:37;11.50;99.90
21403;DHT22;10862;51.886;17.078;2022-10-23T07:11:04;11.60;99.90
21403;DHT22;10862;51.886;17.078;2022-10-23T07:13:29;11.70;99.90
21403;DHT22;10862;51.886;17.078;2022-10-23T07:15:55;11.80;99.90
21403;DHT22;10862;51.886;17.078;2022-10-23T07:18:20;11.90;99.90
21403;DHT22;10862;51.886;17.078;2022-10-23T07:20:46;11.90;99.90
21403;DHT22;10862;51.886;17.078;2022-10-23T07:23:13;12.00;99.90
21403;DHT22;10862;51.886;17.078;2022-10-23T07:25:40;12.00;99.90
21403;DHT22;10862;51.886;17.078;2022-10-23T07:28:06;12.10;99.90
21403;DHT22;10862;51.886;17.078;2022-10-23T07:30:32;12.10;99.90
21403;DHT22;10862;51.886;17.078;2022-10-23T07:32:57;12.00;99.90
21403;DHT22;10862;51.886;17.078;2022-10-23T07:35:23;12.00;99.90
21403;DHT22;10862;51.886;17.078;2022-10-23T07:37:48;12.00;99.90
21403;DHT22;10862;51.886;17.078;2022-10-23T07:40:14;12.00;99.90
21403;DHT22;10862;51.886;17.078;2022-10-23T07:42:40;12.00;99.90
21403;DHT22;10862;51.886;17.078;2022-10-23T07:45:05;12.10;99.90
21403;DHT22;10862;51.886;17.078;2022-10-23T07:47:31;12.10;99.90
21403;DHT22;10862;51.886;17.078;2022-10-23T07:49:57;12.20;99.90
21403;DHT22;10862;51.886;17.078;2022-10-23T07:52:23;12.30;99.90
21403;DHT22;10862;51.886;17.078;2022-10-23T07:54:51;12.30;99.90
21403;DHT22;10862;51.886;17.078;2022-10-23T07:57:17;12.30;99.90
21403;DHT22;10862;51.886;17.078;2022-10-23T07:59:43;12.40;99.90
21403;DHT22;10862;51.886;17.078;2022-10-23T08:02:09;12.40;99.90
21403;DHT22;10862;51.886;17.078;2022-10-23T08:04:35;12.50;99.90
21403;DHT22;10862;51.886;17.078;2022-10-23T08:07:00;12.60;99.90
21403;DHT22;10862;51.886;17.078;2022-10-23T08:09:26;12.60;99.90
21403;DHT22;10862;51.886;17.078;2022-10-23T08:11:51;12.70;99.90
21403;DHT22;10862;51.886;17.078;2022-10-23T08:14:17;12.80;99.90
21403;DHT22;10862;51.886;17.078;2022-10-23T08:16:42;12.90;99.90
21403;DHT22;10862;51.886;17.078;2022-10-23T08:19:08;13.10;99.90
21403;DHT22;10862;51.886;17.078;2022-10-23T08:21:34;13.10;99.90
21403;DHT22;10862;51.886;17.078;2022-10-23T08:24:00;13.20;99.90
21403;DHT22;10862;51.886;17.078;2022-10-23T08:26:26;13.70;99.90
21403;DHT22;10862;51.886;17.078;2022-10-23T08:28:53;13.50;99.90
21403;DHT22;10862;51.886;17.078;2022-10-23T08:31:19;13.40;99.90
21403;DHT22;10862;51.886;17.078;2022-10-23T08:33:45;13.40;99.90
21403;DHT22;10862;51.886;17.078;2022-10-23T08:36:15;13.60;99.90
21403;DHT22;10862;51.886;17.078;2022-10-23T08:38:41;14.00;99.90
21403;DHT22;10862;51.886;17.078;2022-10-23T08:41:12;14.00;99.90
21403;DHT22;10862;51.886;17.078;2022-10-23T08:43:45;14.30;99.90
21403;DHT22;10862;51.886;17.078;2022-10-23T08:46:13;14.20;99.90
21403;DHT22;10862;51.886;17.078;2022-10-23T08:48:49;14.30;99.90
21403;DHT22;10862;51.886;17.078;2022-10-23T08:53:51;15.00;99.90
21403;DHT22;10862;51.886;17.078;2022-10-23T08:56:27;15.40;99.90
21403;DHT22;10862;51.886;17.078;2022-10-23T08:58:57;16.30;99.90
21403;DHT22;10862;51.886;17.078;2022-10-23T09:03:56;17.70;99.90
21403;DHT22;10862;51.886;17.078;2022-10-23T09:06:30;17.50;99.90
21403;DHT22;10862;51.886;17.078;2022-10-23T09:09:11;18.60;99.90
21403;DHT22;10862;51.886;17.078;2022-10-23T09:11:43;18.20;99.90
21403;DHT22;10862;51.886;17.078;2022-10-23T09:14:34;17.50;99.90
21403;DHT22;10862;51.886;17.078;2022-10-23T09:19:32;17.60;99.90
21403;DHT22;10862;51.886;17.078;2022-10-23T09:21:58;17.60;99.90
21403;DHT22;10862;51.886;17.078;2022-10-23T09:24:24;17.20;99.90
21403;DHT22;10862;51.886;17.078;2022-10-23T09:26:51;17.10;99.90
21403;DHT22;10862;51.886;17.078;2022-10-23T09:29:24;16.90;99.90
21403;DHT22;10862;51.886;17.078;2022-10-23T09:31:54;17.00;99.90
21403;DHT22;10862;51.886;17.078;2022-10-23T09:34:21;17.30;99.90
21403;DHT22;10862;51.886;17.078;2022-10-23T09:37:30;17.80;99.90
21403;DHT22;10862;51.886;17.078;2022-10-23T09:39:35;17.70;99.90
21403;DHT22;10862;51.886;17.078;2022-10-23T09:42:12;18.30;99.90
21403;DHT22;10862;51.886;17.078;2022-10-23T09:44:46;17.90;99.90
21403;DHT22;10862;51.886;17.078;2022-10-23T09:47:14;17.60;99.90
21403;DHT22;10862;51.886;17.078;2022-10-23T09:49:46;17.10;99.90
21403;DHT22;10862;51.886;17.078;2022-10-23T09:54:54;18.20;99.90
21403;DHT22;10862;51.886;17.078;2022-10-23T09:57:31;19.10;99.90
21403;DHT22;10862;51.886;17.078;2022-10-23T10:00:00;20.30;99.90
21403;DHT22;10862;51.886;17.078;2022-10-23T10:02:28;19.10;99.90
21403;DHT22;10862;51.886;17.078;2022-10-23T10:04:54;19.90;99.90
21403;DHT22;10862;51.886;17.078;2022-10-23T10:07:21;20.60;99.90
21403;DHT22;10862;51.886;17.078;2022-10-23T10:09:47;19.60;99.90
21403;DHT22;10862;51.886;17.078;2022-10-23T10:12:23;18.70;99.90
21403;DHT22;10862;51.886;17.078;2022-10-23T10:17:19;20.20;99.90
21403;DHT22;10862;51.886;17.078;2022-10-23T10:24:51;20.30;99.90
21403;DHT22;10862;51.886;17.078;2022-10-23T10:30:17;19.50;99.90
21403;DHT22;10862;51.886;17.078;2022-10-23T10:40:31;19.10;99.90
21403;DHT22;10862;51.886;17.078;2022-10-23T10:45:33;18.50;99.90
21403;DHT22;10862;51.886;17.078;2022-10-23T10:50:52;18.30;99.90
21403;DHT22;10862;51.886;17.078;2022-10-23T10:56:02;18.10;99.90
21403;DHT22;10862;51.886;17.078;2022-10-23T11:00:55;17.60;99.90
21403;DHT22;10862;51.886;17.078;2022-10-23T11:05:53;17.60;99.90
21403;DHT22;10862;51.886;17.078;2022-10-23T11:08:22;18.00;99.90
21403;DHT22;10862;51.886;17.078;2022-10-23T11:10:56;18.00;99.90
21403;DHT22;10862;51.886;17.078;2022-10-23T11:13:25;17.90;99.90
21403;DHT22;10862;51.886;17.078;2022-10-23T11:15:51;17.70;99.90
21403;DHT22;10862;51.886;17.078;2022-10-23T11:18:23;18.00;99.90
21403;DHT22;10862;51.886;17.078;2022-10-23T11:33:57;18.10;99.90
21403;DHT22;10862;51.886;17.078;2022-10-23T11:39:05;18.20;99.90
21403;DHT22;10862;51.886;17.078;2022-10-23T11:41:31;18.10;99.90
21403;DHT22;10862;51.886;17.078;2022-10-23T11:43:59;17.90;99.90
21403;DHT22;10862;51.886;17.078;2022-10-23T11:48:54;17.60;99.90
21403;DHT22;10862;51.886;17.078;2022-10-23T11:54:19;17.70;99.90
21403;DHT22;10862;51.886;17.078;2022-10-23T11:59:29;17.90;99.90
21403;DHT22;10862;51.886;17.078;2022-10-23T12:01:57;17.80;99.90
21403;DHT22;10862;51.886;17.078;2022-10-23T12:04:45;17.90;99.90
21403;DHT22;10862;51.886;17.078;2022-10-23T12:07:16;17.90;99.90
21403;DHT22;10862;51.886;17.078;2022-10-23T12:12:28;17.70;99.90
21403;DHT22;10862;51.886;17.078;2022-10-23T12:15:05;17.90;99.90
21403;DHT22;10862;51.886;17.078;2022-10-23T12:17:34;18.00;99.90
21403;DHT22;10862;51.886;17.078;2022-10-23T12:20:43;18.00;99.90
21403;DHT22;10862;51.886;17.078;2022-10-23T12:22:52;18.00;99.90
21403;DHT22;10862;51.886;17.078;2022-10-23T12:25:23;17.70;99.90
21403;DHT22;10862;51.886;17.078;2022-10-23T12:28:02;17.60;99.90
21403;DHT22;10862;51.886;17.078;2022-10-23T12:30:44;17.60;99.90
21403;DHT22;10862;51.886;17.078;2022-10-23T12:33:18;17.70;99.90
21403;DHT22;10862;51.886;17.078;2022-10-23T12:40:51;17.80;99.90
21403;DHT22;10862;51.886;17.078;2022-10-23T12:43:27;17.80;99.90
21403;DHT22;10862;51.886;17.078;2022-10-23T12:45:54;17.90;99.90
21403;DHT22;10862;51.886;17.078;2022-10-23T12:48:22;18.00;99.90
21403;DHT22;10862;51.886;17.078;2022-10-23T12:50:56;18.00;99.90
21403;DHT22;10862;51.886;17.078;2022-10-23T12:53:22;18.00;99.90
21403;DHT22;10862;51.886;17.078;2022-10-23T12:55:50;17.90;99.90
21403;DHT22;10862;51.886;17.078;2022-10-23T12:58:24;17.70;99.90
21403;DHT22;10862;51.886;17.078;2022-10-23T13:00:54;17.50;99.90
21403;DHT22;10862;51.886;17.078;2022-10-23T13:03:20;17.30;99.90
21403;DHT22;10862;51.886;17.078;2022-10-23T13:05:48;17.30;99.90
21403;DHT22;10862;51.886;17.078;2022-10-23T13:08:14;17.50;99.90
21403;DHT22;10862;51.886;17.078;2022-10-23T13:10:39;17.60;99.90
21403;DHT22;10862;51.886;17.078;2022-10-23T13:13:06;17.70;99.90
21403;DHT22;10862;51.886;17.078;2022-10-23T13:15:42;17.60;99.90
21403;DHT22;10862;51.886;17.078;2022-10-23T13:18:09;17.60;99.90
21403;DHT22;10862;51.886;17.078;2022-10-23T13:20:36;17.50;99.90
21403;DHT22;10862;51.886;17.078;2022-10-23T13:28:28;17.60;99.90
21403;DHT22;10862;51.886;17.078;2022-10-23T13:33:23;17.50;99.90
21403;DHT22;10862;51.886;17.078;2022-10-23T13:35:56;17.60;99.90
21403;DHT22;10862;51.886;17.078;2022-10-23T13:38:28;17.70;99.90
21403;DHT22;10862;51.886;17.078;2022-10-23T13:40:55;17.60;99.90
21403;DHT22;10862;51.886;17.078;2022-10-23T13:43:21;17.50;99.90
21403;DHT22;10862;51.886;17.078;2022-10-23T13:45:48;17.50;99.90
21403;DHT22;10862;51.886;17.078;2022-10-23T13:48:13;17.50;99.90
21403;DHT22;10862;51.886;17.078;2022-10-23T13:50:40;17.70;99.90
21403;DHT22;10862;51.886;17.078;2022-10-23T13:53:07;17.90;99.90
21403;DHT22;10862;51.886;17.078;2022-10-23T13:55:33;18.00;99.90
21403;DHT22;10862;51.886;17.078;2022-10-23T13:57:59;18.30;99.90
21403;DHT22;10862;51.886;17.078;2022-10-23T14:00:24;18.20;99.90
21403;DHT22;10862;51.886;17.078;2022-10-23T14:02:50;18.20;99.90
21403;DHT22;10862;51.886;17.078;2022-10-23T14:05:15;18.20;99.90
21403;DHT22;10862;51.886;17.078;2022-10-23T14:07:41;18.20;99.90
21403;DHT22;10862;51.886;17.078;2022-10-23T14:10:06;18.20;99.90
21403;DHT22;10862;51.886;17.078;2022-10-23T14:12:39;18.20;99.90
21403;DHT22;10862;51.886;17.078;2022-10-23T14:15:05;18.20;99.90
21403;DHT22;10862;51.886;17.078;2022-10-23T14:17:30;18.30;99.90
21403;DHT22;10862;51.886;17.078;2022-10-23T14:19:56;18.40;99.90
21403;DHT22;10862;51.886;17.078;2022-10-23T14:22:21;18.30;99.90
21403;DHT22;10862;51.886;17.078;2022-10-23T14:24:47;18.10;99.90
21403;DHT22;10862;51.886;17.078;2022-10-23T14:27:12;17.90;99.90
21403;DHT22;10862;51.886;17.078;2022-10-23T14:29:39;17.80;99.90
21403;DHT22;10862;51.886;17.078;2022-10-23T14:32:04;17.60;99.90
21403;DHT22;10862;51.886;17.078;2022-10-23T14:34:30;17.50;99.90
21403;DHT22;10862;51.886;17.078;2022-10-23T14:36:55;17.30;99.90
21403;DHT22;10862;51.886;17.078;2022-10-23T14:39:21;17.20;99.90
21403;DHT22;10862;51.886;17.078;2022-10-23T14:41:46;17.10;99.90
21403;DHT22;10862;51.886;17.078;2022-10-23T14:44:12;17.00;99.90
21403;DHT22;10862;51.886;17.078;2022-10-23T14:46:37;16.90;99.90
21403;DHT22;10862;51.886;17.078;2022-10-23T14:49:03;16.80;99.90
21403;DHT22;10862;51.886;17.078;2022-10-23T14:51:28;16.80;99.90
21403;DHT22;10862;51.886;17.078;2022-10-23T14:53:55;16.70;99.90
21403;DHT22;10862;51.886;17.078;2022-10-23T14:56:23;16.60;99.90
21403;DHT22;10862;51.886;17.078;2022-10-23T14:58:49;16.60;99.90
21403;DHT22;10862;51.886;17.078;2022-10-23T15:01:14;16.50;99.90
21403;DHT22;10862;51.886;17.078;2022-10-23T15:03:40;16.40;99.90
21403;DHT22;10862;51.886;17.078;2022-10-23T15:06:06;16.40;99.90
21403;DHT22;10862;51.886;17.078;2022-10-23T15:08:32;16.40;99.90
21403;DHT22;10862;51.886;17.078;2022-10-23T15:11:01;16.30;99.90
21403;DHT22;10862;51.886;17.078;2022-10-23T15:13:27;16.20;99.90
21403;DHT22;10862;51.886;17.078;2022-10-23T15:16:06;16.10;99.90
21403;DHT22;10862;51.886;17.078;2022-10-23T15:18:32;16.10;99.90
21403;DHT22;10862;51.886;17.078;2022-10-23T15:20:57;16.00;99.90
21403;DHT22;10862;51.886;17.078;2022-10-23T15:23:23;15.90;99.90
21403;DHT22;10862;51.886;17.078;2022-10-23T15:25:55;15.80;99.90
21403;DHT22;10862;51.886;17.078;2022-10-23T15:28:21;15.70;99.90
21403;DHT22;10862;51.886;17.078;2022-10-23T15:30:46;15.60;99.90
21403;DHT22;10862;51.886;17.078;2022-10-23T15:33:12;15.50;99.90
21403;DHT22;10862;51.886;17.078;2022-10-23T15:35:37;15.50;99.90
21403;DHT22;10862;51.886;17.078;2022-10-23T15:38:03;15.40;99.90
21403;DHT22;10862;51.886;17.078;2022-10-23T15:40:28;15.30;99.90
21403;DHT22;10862;51.886;17.078;2022-10-23T15:42:54;15.30;99.90
21403;DHT22;10862;51.886;17.078;2022-10-23T15:45:19;15.20;99.90
21403;DHT22;10862;51.886;17.078;2022-10-23T15:47:45;15.20;99.90
21403;DHT22;10862;51.886;17.078;2022-10-23T15:50:10;15.20;99.90
21403;DHT22;10862;51.886;17.078;2022-10-23T15:52:36;15.20;99.90
21403;DHT22;10862;51.886;17.078;2022-10-23T15:55:02;15.10;99.90
21403;DHT22;10862;51.886;17.078;2022-10-23T15:57:27;15.10;99.90
21403;DHT22;10862;51.886;17.078;2022-10-23T15:59:55;15.10;99.90
21403;DHT22;10862;51.886;17.078;2022-10-23T16:02:21;15.10;99.90
21403;DHT22;10862;51.886;17.078;2022-10-23T16:04:47;15.00;99.90
21403;DHT22;10862;51.886;17.078;2022-10-23T16:07:12;15.00;99.90
21403;DHT22;10862;51.886;17.078;2022-10-23T16:09:38;15.00;99.90
21403;DHT22;10862;51.886;17.078;2022-10-23T16:12:04;14.90;99.90
21403;DHT22;10862;51.886;17.078;2022-10-23T16:14:29;14.80;99.90
21403;DHT22;10862;51.886;17.078;2022-10-23T16:16:55;14.70;99.90
21403;DHT22;10862;51.886;17.078;2022-10-23T16:19:20;14.60;99.90
21403;DHT22;10862;51.886;17.078;2022-10-23T16:21:46;14.60;99.90
21403;DHT22;10862;51.886;17.078;2022-10-23T16:24:11;14.60;99.90
21403;DHT22;10862;51.886;17.078;2022-10-23T16:26:37;14.60;99.90
21403;DHT22;10862;51.886;17.078;2022-10-23T16:29:03;14.60;99.90
21403;DHT22;10862;51.886;17.078;2022-10-23T16:31:29;14.60;99.90
21403;DHT22;10862;51.886;17.078;2022-10-23T16:33:56;14.60;99.90
21403;DHT22;10862;51.886;17.078;2022-10-23T16:36:22;14.70;99.90
21403;DHT22;10862;51.886;17.078;2022-10-23T16:38:47;14.70;99.90
21403;DHT22;10862;51.886;17.078;2022-10-23T16:41:13;14.70;99.90
21403;DHT22;10862;51.886;17.078;2022-10-23T16:43:38;14.70;99.90
21403;DHT22;10862;51.886;17.078;2022-10-23T16:48:29;14.60;99.90
21403;DHT22;10862;51.886;17.078;2022-10-23T16:50:55;14.60;99.90
21403;DHT22;10862;51.886;17.078;2022-10-23T16:53:20;14.50;99.90
21403;DHT22;10862;51.886;17.078;2022-10-23T16:55:46;14.50;99.90
21403;DHT22;10862;51.886;17.078;2022-10-23T16:58:11;14.50;99.90
21403;DHT22;10862;51.886;17.078;2022-10-23T17:00:37;14.40;99.90
21403;DHT22;10862;51.886;17.078;2022-10-23T17:03:03;14.40;99.90
21403;DHT22;10862;51.886;17.078;2022-10-23T17:05:32;14.40;99.90
21403;DHT22;10862;51.886;17.078;2022-10-23T17:07:58;14.40;99.90